sensor_id;sensor_type;location;lat;lon;timestamp;P1;durP1;ratioP1;P2;durP2;ratioP2
43519;SDS011;46848;51.980;5.918;2023-01-29T00:02:05;17.60;;;11.40;;
43519;SDS011;46848;51.980;5.918;2023-01-29T00:04:30;17.87;;;11.53;;
43519;SDS011;46848;51.980;5.918;2023-01-29T00:06:56;17.73;;;10.87;;
43519;SDS011;46848;51.980;5.918;2023-01-29T00:09:23;17.57;;;11.40;;
43519;SDS011;46848;51.980;5.918;2023-01-29T00:11:48;16.77;;;12.13;;
43519;SDS011;46848;51.980;5.918;2023-01-29T00:14:14;16.57;;;11.70;;
43519;SDS011;46848;51.980;5.918;2023-01-29T00:16:40;17.63;;;11.43;;
43519;SDS011;46848;51.980;5.918;2023-01-29T00:19:06;17.57;;;10.87;;
43519;SDS011;46848;51.980;5.918;2023-01-29T00:21:31;18.43;;;12.33;;
43519;SDS011;46848;51.980;5.918;2023-01-29T00:23:57;19.00;;;12.17;;
43519;SDS011;46848;51.980;5.918;2023-01-29T00:26:24;18.40;;;12.33;;
43519;SDS011;46848;51.980;5.918;2023-01-29T00:28:50;17.33;;;11.13;;
43519;SDS011;46848;51.980;5.918;2023-01-29T00:31:20;17.93;;;12.17;;
43519;SDS011;46848;51.980;5.918;2023-01-29T00:33:47;18.47;;;11.83;;
43519;SDS011;46848;51.980;5.918;2023-01-29T00:36:14;18.33;;;13.10;;
43519;SDS011;46848;51.980;5.918;2023-01-29T00:38:41;17.87;;;12.23;;
43519;SDS011;46848;51.980;5.918;2023-01-29T00:41:11;19.50;;;12.90;;
43519;SDS011;46848;51.980;5.918;2023-01-29T00:43:58;18.63;;;12.97;;
43519;SDS011;46848;51.980;5.918;2023-01-29T00:46:43;19.47;;;12.60;;
43519;SDS011;46848;51.980;5.918;2023-01-29T00:49:09;18.97;;;12.57;;
43519;SDS011;46848;51.980;5.918;2023-01-29T00:51:35;18.33;;;12.93;;
43519;SDS011;46848;51.980;5.918;2023-01-29T00:54:02;18.73;;;12.57;;
43519;SDS011;46848;51.980;5.918;2023-01-29T00:56:31;21.90;;;13.07;;
43519;SDS011;46848;51.980;5.918;2023-01-29T00:59:01;19.07;;;12.73;;
43519;SDS011;46848;51.980;5.918;2023-01-29T01:01:28;21.67;;;13.80;;
43519;SDS011;46848;51.980;5.918;2023-01-29T01:04:12;17.50;;;12.03;;
43519;SDS011;46848;51.980;5.918;2023-01-29T01:06:38;19.23;;;13.00;;
43519;SDS011;46848;51.980;5.918;2023-01-29T01:09:05;18.57;;;12.23;;
43519;SDS011;46848;51.980;5.918;2023-01-29T01:11:50;19.53;;;12.57;;
43519;SDS011;46848;51.980;5.918;2023-01-29T01:14:17;20.20;;;13.10;;
43519;SDS011;46848;51.980;5.918;2023-01-29T01:16:43;17.57;;;12.17;;
43519;SDS011;46848;51.980;5.918;2023-01-29T01:19:10;19.67;;;13.17;;
43519;SDS011;46848;51.980;5.918;2023-01-29T01:21:36;19.00;;;12.13;;
43519;SDS011;46848;51.980;5.918;2023-01-29T01:24:02;18.47;;;12.03;;
43519;SDS011;46848;51.980;5.918;2023-01-29T01:26:30;18.27;;;11.90;;
43519;SDS011;46848;51.980;5.918;2023-01-29T01:28:56;19.37;;;13.57;;
43519;SDS011;46848;51.980;5.918;2023-01-29T01:31:22;21.33;;;13.23;;
43519;SDS011;46848;51.980;5.918;2023-01-29T01:33:48;21.27;;;13.93;;
43519;SDS011;46848;51.980;5.918;2023-01-29T01:36:15;22.27;;;14.60;;
43519;SDS011;46848;51.980;5.918;2023-01-29T01:38:41;22.53;;;14.00;;
43519;SDS011;46848;51.980;5.918;2023-01-29T01:41:10;19.33;;;12.47;;
43519;SDS011;46848;51.980;5.918;2023-01-29T01:46:18;21.93;;;14.00;;
43519;SDS011;46848;51.980;5.918;2023-01-29T01:48:45;21.07;;;13.43;;
43519;SDS011;46848;51.980;5.918;2023-01-29T01:51:14;23.33;;;14.60;;
43519;SDS011;46848;51.980;5.918;2023-01-29T01:53:48;20.83;;;13.73;;
43519;SDS011;46848;51.980;5.918;2023-01-29T01:56:20;23.97;;;14.80;;
43519;SDS011;46848;51.980;5.918;2023-01-29T01:58:52;23.57;;;15.47;;
43519;SDS011;46848;51.980;5.918;2023-01-29T02:01:22;23.05;;;14.88;;
43519;SDS011;46848;51.980;5.918;2023-01-29T02:04:03;23.17;;;15.60;;
43519;SDS011;46848;51.980;5.918;2023-01-29T02:06:50;21.23;;;13.67;;
43519;SDS011;46848;51.980;5.918;2023-01-29T02:09:40;21.00;;;14.03;;
43519;SDS011;46848;51.980;5.918;2023-01-29T02:12:12;23.63;;;14.57;;
43519;SDS011;46848;51.980;5.918;2023-01-29T02:14:40;19.77;;;13.07;;
43519;SDS011;46848;51.980;5.918;2023-01-29T02:17:09;25.70;;;14.90;;
43519;SDS011;46848;51.980;5.918;2023-01-29T02:19:40;23.57;;;13.60;;
43519;SDS011;46848;51.980;5.918;2023-01-29T02:22:36;22.53;;;14.63;;
43519;SDS011;46848;51.980;5.918;2023-01-29T02:28:05;22.50;;;14.90;;
43519;SDS011;46848;51.980;5.918;2023-01-29T02:30:55;20.77;;;14.33;;
43519;SDS011;46848;51.980;5.918;2023-01-29T02:34:02;23.87;;;15.30;;
43519;SDS011;46848;51.980;5.918;2023-01-29T02:36:44;24.10;;;15.47;;
43519;SDS011;46848;51.980;5.918;2023-01-29T02:42:16;25.43;;;15.40;;
43519;SDS011;46848;51.980;5.918;2023-01-29T02:49:56;25.70;;;16.73;;
43519;SDS011;46848;51.980;5.918;2023-01-29T02:52:25;26.03;;;15.50;;
43519;SDS011;46848;51.980;5.918;2023-01-29T02:55:12;22.00;;;14.03;;
43519;SDS011;46848;51.980;5.918;2023-01-29T02:57:44;23.15;;;15.27;;
43519;SDS011;46848;51.980;5.918;2023-01-29T03:00:29;23.90;;;15.37;;
43519;SDS011;46848;51.980;5.918;2023-01-29T03:03:06;22.03;;;14.00;;
43519;SDS011;46848;51.980;5.918;2023-01-29T03:11:24;20.00;;;13.10;;
43519;SDS011;46848;51.980;5.918;2023-01-29T03:14:03;21.37;;;13.13;;
43519;SDS011;46848;51.980;5.918;2023-01-29T03:16:37;21.17;;;13.57;;
43519;SDS011;46848;51.980;5.918;2023-01-29T03:21:51;23.77;;;15.33;;
43519;SDS011;46848;51.980;5.918;2023-01-29T03:27:38;21.53;;;14.03;;
43519;SDS011;46848;51.980;5.918;2023-01-29T03:30:27;23.63;;;15.00;;
43519;SDS011;46848;51.980;5.918;2023-01-29T03:33:14;23.93;;;15.73;;
43519;SDS011;46848;51.980;5.918;2023-01-29T03:35:48;25.03;;;16.03;;
43519;SDS011;46848;51.980;5.918;2023-01-29T03:38:17;24.53;;;15.63;;
43519;SDS011;46848;51.980;5.918;2023-01-29T03:48:36;26.67;;;15.77;;
43519;SDS011;46848;51.980;5.918;2023-01-29T03:53:59;25.05;;;15.52;;
43519;SDS011;46848;51.980;5.918;2023-01-29T04:01:59;24.37;;;14.60;;
43519;SDS011;46848;51.980;5.918;2023-01-29T04:04:29;22.57;;;14.23;;
43519;SDS011;46848;51.980;5.918;2023-01-29T04:09:31;21.70;;;14.53;;
43519;SDS011;46848;51.980;5.918;2023-01-29T04:12:04;25.37;;;15.10;;
43519;SDS011;46848;51.980;5.918;2023-01-29T04:14:33;24.23;;;16.13;;
43519;SDS011;46848;51.980;5.918;2023-01-29T04:17:00;24.77;;;16.23;;
43519;SDS011;46848;51.980;5.918;2023-01-29T04:19:32;22.83;;;15.13;;
43519;SDS011;46848;51.980;5.918;2023-01-29T04:22:01;22.97;;;15.10;;
43519;SDS011;46848;51.980;5.918;2023-01-29T04:24:34;25.50;;;16.37;;
43519;SDS011;46848;51.980;5.918;2023-01-29T04:27:04;24.60;;;16.03;;
43519;SDS011;46848;51.980;5.918;2023-01-29T04:29:39;24.13;;;15.63;;
43519;SDS011;46848;51.980;5.918;2023-01-29T04:32:20;24.73;;;16.50;;
43519;SDS011;46848;51.980;5.918;2023-01-29T04:35:31;24.50;;;15.83;;
43519;SDS011;46848;51.980;5.918;2023-01-29T04:38:34;24.73;;;15.60;;
43519;SDS011;46848;51.980;5.918;2023-01-29T04:41:37;26.03;;;16.50;;
43519;SDS011;46848;51.980;5.918;2023-01-29T04:44:25;25.97;;;16.43;;
43519;SDS011;46848;51.980;5.918;2023-01-29T04:52:13;23.63;;;15.73;;
43519;SDS011;46848;51.980;5.918;2023-01-29T04:55:00;28.77;;;18.50;;
43519;SDS011;46848;51.980;5.918;2023-01-29T05:02:46;27.30;;;17.00;;
43519;SDS011;46848;51.980;5.918;2023-01-29T05:05:13;27.50;;;18.00;;
43519;SDS011;46848;51.980;5.918;2023-01-29T05:07:40;25.20;;;16.47;;
43519;SDS011;46848;51.980;5.918;2023-01-29T05:10:09;28.57;;;17.37;;
43519;SDS011;46848;51.980;5.918;2023-01-29T05:12:37;27.33;;;17.67;;
43519;SDS011;46848;51.980;5.918;2023-01-29T05:15:07;25.70;;;16.93;;
43519;SDS011;46848;51.980;5.918;2023-01-29T05:17:36;24.95;;;16.27;;
43519;SDS011;46848;51.980;5.918;2023-01-29T05:20:02;23.90;;;16.10;;
43519;SDS011;46848;51.980;5.918;2023-01-29T05:22:28;26.03;;;15.70;;
43519;SDS011;46848;51.980;5.918;2023-01-29T05:24:54;24.33;;;15.60;;
43519;SDS011;46848;51.980;5.918;2023-01-29T05:27:21;25.80;;;16.30;;
43519;SDS011;46848;51.980;5.918;2023-01-29T05:30:17;26.10;;;16.90;;
43519;SDS011;46848;51.980;5.918;2023-01-29T05:32:43;24.67;;;16.07;;
43519;SDS011;46848;51.980;5.918;2023-01-29T05:35:09;27.07;;;16.83;;
43519;SDS011;46848;51.980;5.918;2023-01-29T05:37:34;26.37;;;16.23;;
43519;SDS011;46848;51.980;5.918;2023-01-29T05:40:00;25.87;;;17.50;;
43519;SDS011;46848;51.980;5.918;2023-01-29T05:42:25;26.17;;;16.53;;
43519;SDS011;46848;51.980;5.918;2023-01-29T05:44:51;27.73;;;17.70;;
43519;SDS011;46848;51.980;5.918;2023-01-29T05:47:20;25.83;;;16.50;;
43519;SDS011;46848;51.980;5.918;2023-01-29T05:49:46;24.63;;;16.03;;
43519;SDS011;46848;51.980;5.918;2023-01-29T05:52:11;26.90;;;17.37;;
43519;SDS011;46848;51.980;5.918;2023-01-29T05:54:37;26.43;;;16.07;;
43519;SDS011;46848;51.980;5.918;2023-01-29T05:57:03;27.17;;;16.90;;
43519;SDS011;46848;51.980;5.918;2023-01-29T05:59:28;25.93;;;16.40;;
43519;SDS011;46848;51.980;5.918;2023-01-29T06:01:55;26.00;;;16.40;;
43519;SDS011;46848;51.980;5.918;2023-01-29T06:04:21;29.37;;;18.27;;
43519;SDS011;46848;51.980;5.918;2023-01-29T06:06:47;27.53;;;17.97;;
43519;SDS011;46848;51.980;5.918;2023-01-29T06:09:13;26.77;;;18.20;;
43519;SDS011;46848;51.980;5.918;2023-01-29T06:11:38;27.00;;;18.53;;
43519;SDS011;46848;51.980;5.918;2023-01-29T06:14:04;30.97;;;19.43;;
43519;SDS011;46848;51.980;5.918;2023-01-29T06:16:30;29.70;;;19.30;;
43519;SDS011;46848;51.980;5.918;2023-01-29T06:18:55;28.40;;;18.77;;
43519;SDS011;46848;51.980;5.918;2023-01-29T06:21:21;28.43;;;17.77;;
43519;SDS011;46848;51.980;5.918;2023-01-29T06:23:47;27.20;;;18.67;;
43519;SDS011;46848;51.980;5.918;2023-01-29T06:26:13;27.13;;;17.80;;
43519;SDS011;46848;51.980;5.918;2023-01-29T06:28:39;28.43;;;18.33;;
43519;SDS011;46848;51.980;5.918;2023-01-29T06:31:06;28.67;;;18.47;;
43519;SDS011;46848;51.980;5.918;2023-01-29T06:33:32;29.47;;;19.40;;
43519;SDS011;46848;51.980;5.918;2023-01-29T06:35:59;28.47;;;19.10;;
43519;SDS011;46848;51.980;5.918;2023-01-29T06:38:26;28.77;;;18.97;;
43519;SDS011;46848;51.980;5.918;2023-01-29T06:40:52;30.90;;;20.27;;
43519;SDS011;46848;51.980;5.918;2023-01-29T06:43:19;30.43;;;19.80;;
43519;SDS011;46848;51.980;5.918;2023-01-29T06:45:52;30.70;;;18.97;;
43519;SDS011;46848;51.980;5.918;2023-01-29T06:48:19;27.87;;;18.37;;
43519;SDS011;46848;51.980;5.918;2023-01-29T06:50:45;29.80;;;19.13;;
43519;SDS011;46848;51.980;5.918;2023-01-29T06:53:11;31.13;;;19.23;;
43519;SDS011;46848;51.980;5.918;2023-01-29T06:55:37;31.87;;;19.50;;
43519;SDS011;46848;51.980;5.918;2023-01-29T06:58:04;27.97;;;18.03;;
43519;SDS011;46848;51.980;5.918;2023-01-29T07:00:34;28.27;;;18.33;;
43519;SDS011;46848;51.980;5.918;2023-01-29T07:03:00;31.67;;;19.50;;
43519;SDS011;46848;51.980;5.918;2023-01-29T07:05:26;31.60;;;20.47;;
43519;SDS011;46848;51.980;5.918;2023-01-29T07:07:51;28.63;;;19.00;;
43519;SDS011;46848;51.980;5.918;2023-01-29T07:10:18;32.00;;;19.77;;
43519;SDS011;46848;51.980;5.918;2023-01-29T07:12:44;29.47;;;19.40;;
43519;SDS011;46848;51.980;5.918;2023-01-29T07:15:09;28.90;;;18.50;;
43519;SDS011;46848;51.980;5.918;2023-01-29T07:17:36;30.37;;;19.37;;
43519;SDS011;46848;51.980;5.918;2023-01-29T07:20:02;30.73;;;19.37;;
43519;SDS011;46848;51.980;5.918;2023-01-29T07:22:31;37.27;;;30.00;;
43519;SDS011;46848;51.980;5.918;2023-01-29T07:24:57;34.63;;;25.30;;
43519;SDS011;46848;51.980;5.918;2023-01-29T07:27:22;35.33;;;22.60;;
43519;SDS011;46848;51.980;5.918;2023-01-29T07:29:48;30.27;;;20.20;;
43519;SDS011;46848;51.980;5.918;2023-01-29T07:32:14;30.97;;;19.47;;
43519;SDS011;46848;51.980;5.918;2023-01-29T07:34:39;30.83;;;18.77;;
43519;SDS011;46848;51.980;5.918;2023-01-29T07:37:05;29.33;;;18.87;;
43519;SDS011;46848;51.980;5.918;2023-01-29T07:39:31;28.40;;;17.77;;
43519;SDS011;46848;51.980;5.918;2023-01-29T07:41:57;26.37;;;18.07;;
43519;SDS011;46848;51.980;5.918;2023-01-29T07:44:22;28.70;;;18.07;;
43519;SDS011;46848;51.980;5.918;2023-01-29T07:46:48;27.97;;;17.83;;
43519;SDS011;46848;51.980;5.918;2023-01-29T07:49:14;26.10;;;17.13;;
43519;SDS011;46848;51.980;5.918;2023-01-29T07:51:40;28.63;;;18.67;;
43519;SDS011;46848;51.980;5.918;2023-01-29T07:54:06;30.60;;;19.13;;
43519;SDS011;46848;51.980;5.918;2023-01-29T07:56:32;28.57;;;18.60;;
43519;SDS011;46848;51.980;5.918;2023-01-29T07:58:57;27.90;;;18.63;;
43519;SDS011;46848;51.980;5.918;2023-01-29T08:01:23;30.97;;;19.90;;
43519;SDS011;46848;51.980;5.918;2023-01-29T08:03:49;28.63;;;18.80;;
43519;SDS011;46848;51.980;5.918;2023-01-29T08:06:14;31.53;;;19.67;;
43519;SDS011;46848;51.980;5.918;2023-01-29T08:08:40;33.60;;;20.90;;
43519;SDS011;46848;51.980;5.918;2023-01-29T08:11:06;29.00;;;19.40;;
43519;SDS011;46848;51.980;5.918;2023-01-29T08:13:32;30.93;;;20.40;;
43519;SDS011;46848;51.980;5.918;2023-01-29T08:15:58;32.80;;;20.67;;
43519;SDS011;46848;51.980;5.918;2023-01-29T08:18:27;30.17;;;19.53;;
43519;SDS011;46848;51.980;5.918;2023-01-29T08:21:01;27.77;;;18.50;;
43519;SDS011;46848;51.980;5.918;2023-01-29T08:25:53;29.07;;;18.43;;
43519;SDS011;46848;51.980;5.918;2023-01-29T08:28:18;30.70;;;18.73;;
43519;SDS011;46848;51.980;5.918;2023-01-29T08:30:44;30.13;;;18.77;;
43519;SDS011;46848;51.980;5.918;2023-01-29T08:33:10;28.20;;;17.93;;
43519;SDS011;46848;51.980;5.918;2023-01-29T08:35:36;25.20;;;16.73;;
43519;SDS011;46848;51.980;5.918;2023-01-29T08:38:02;28.93;;;18.23;;
43519;SDS011;46848;51.980;5.918;2023-01-29T08:40:30;26.90;;;16.57;;
43519;SDS011;46848;51.980;5.918;2023-01-29T08:42:57;28.37;;;17.87;;
43519;SDS011;46848;51.980;5.918;2023-01-29T08:45:23;26.77;;;16.67;;
43519;SDS011;46848;51.980;5.918;2023-01-29T08:47:49;25.60;;;16.43;;
43519;SDS011;46848;51.980;5.918;2023-01-29T08:50:15;25.73;;;18.20;;
43519;SDS011;46848;51.980;5.918;2023-01-29T08:52:42;27.97;;;17.80;;
43519;SDS011;46848;51.980;5.918;2023-01-29T08:55:08;25.70;;;16.97;;
43519;SDS011;46848;51.980;5.918;2023-01-29T08:57:35;28.80;;;18.90;;
43519;SDS011;46848;51.980;5.918;2023-01-29T09:00:03;27.30;;;18.03;;
43519;SDS011;46848;51.980;5.918;2023-01-29T09:02:29;26.83;;;18.10;;
43519;SDS011;46848;51.980;5.918;2023-01-29T09:04:55;28.10;;;17.00;;
43519;SDS011;46848;51.980;5.918;2023-01-29T09:07:21;26.20;;;15.63;;
43519;SDS011;46848;51.980;5.918;2023-01-29T09:09:47;26.30;;;17.10;;
43519;SDS011;46848;51.980;5.918;2023-01-29T09:12:12;25.27;;;17.33;;
43519;SDS011;46848;51.980;5.918;2023-01-29T09:14:38;26.13;;;17.30;;
43519;SDS011;46848;51.980;5.918;2023-01-29T09:17:04;24.90;;;16.67;;
43519;SDS011;46848;51.980;5.918;2023-01-29T09:19:29;25.27;;;16.53;;
43519;SDS011;46848;51.980;5.918;2023-01-29T09:21:55;23.57;;;15.67;;
43519;SDS011;46848;51.980;5.918;2023-01-29T09:24:21;25.60;;;15.97;;
43519;SDS011;46848;51.980;5.918;2023-01-29T09:26:46;26.23;;;16.93;;
43519;SDS011;46848;51.980;5.918;2023-01-29T09:29:12;25.77;;;17.53;;
43519;SDS011;46848;51.980;5.918;2023-01-29T09:31:38;26.77;;;17.10;;
43519;SDS011;46848;51.980;5.918;2023-01-29T09:34:03;22.20;;;14.97;;
43519;SDS011;46848;51.980;5.918;2023-01-29T09:36:29;27.20;;;16.67;;
43519;SDS011;46848;51.980;5.918;2023-01-29T09:38:54;25.73;;;16.33;;
43519;SDS011;46848;51.980;5.918;2023-01-29T09:41:27;29.07;;;18.90;;
43519;SDS011;46848;51.980;5.918;2023-01-29T09:44:10;23.93;;;16.80;;
43519;SDS011;46848;51.980;5.918;2023-01-29T09:46:44;25.97;;;17.00;;
43519;SDS011;46848;51.980;5.918;2023-01-29T09:49:28;27.43;;;17.47;;
43519;SDS011;46848;51.980;5.918;2023-01-29T09:57:37;22.37;;;15.27;;
43519;SDS011;46848;51.980;5.918;2023-01-29T10:00:13;27.50;;;17.37;;
43519;SDS011;46848;51.980;5.918;2023-01-29T10:02:58;25.37;;;16.67;;
43519;SDS011;46848;51.980;5.918;2023-01-29T10:05:36;27.57;;;16.50;;
43519;SDS011;46848;51.980;5.918;2023-01-29T10:22:08;23.43;;;15.43;;
43519;SDS011;46848;51.980;5.918;2023-01-29T10:25:04;24.07;;;15.80;;
43519;SDS011;46848;51.980;5.918;2023-01-29T10:27:35;24.07;;;15.67;;
43519;SDS011;46848;51.980;5.918;2023-01-29T10:30:07;24.83;;;15.17;;
43519;SDS011;46848;51.980;5.918;2023-01-29T10:32:53;23.30;;;15.23;;
43519;SDS011;46848;51.980;5.918;2023-01-29T10:35:23;24.90;;;16.13;;
43519;SDS011;46848;51.980;5.918;2023-01-29T10:37:55;24.15;;;15.90;;
43519;SDS011;46848;51.980;5.918;2023-01-29T10:40:28;26.03;;;17.00;;
43519;SDS011;46848;51.980;5.918;2023-01-29T10:43:07;24.57;;;14.53;;
43519;SDS011;46848;51.980;5.918;2023-01-29T10:48:10;23.13;;;15.17;;
43519;SDS011;46848;51.980;5.918;2023-01-29T11:02:13;27.03;;;16.07;;
43519;SDS011;46848;51.980;5.918;2023-01-29T11:04:41;26.83;;;16.53;;
43519;SDS011;46848;51.980;5.918;2023-01-29T11:07:07;22.37;;;15.23;;
43519;SDS011;46848;51.980;5.918;2023-01-29T11:09:45;24.23;;;15.03;;
43519;SDS011;46848;51.980;5.918;2023-01-29T11:12:35;22.60;;;13.63;;
43519;SDS011;46848;51.980;5.918;2023-01-29T11:15:04;22.63;;;14.47;;
43519;SDS011;46848;51.980;5.918;2023-01-29T11:17:40;23.13;;;14.73;;
43519;SDS011;46848;51.980;5.918;2023-01-29T11:20:26;21.73;;;14.73;;
43519;SDS011;46848;51.980;5.918;2023-01-29T11:22:53;22.83;;;14.97;;
43519;SDS011;46848;51.980;5.918;2023-01-29T11:25:23;22.67;;;14.83;;
43519;SDS011;46848;51.980;5.918;2023-01-29T11:27:56;24.47;;;15.63;;
43519;SDS011;46848;51.980;5.918;2023-01-29T11:30:30;25.93;;;16.57;;
43519;SDS011;46848;51.980;5.918;2023-01-29T11:35:32;24.37;;;15.50;;
43519;SDS011;46848;51.980;5.918;2023-01-29T11:38:07;24.63;;;15.20;;
43519;SDS011;46848;51.980;5.918;2023-01-29T11:40:37;24.13;;;16.60;;
43519;SDS011;46848;51.980;5.918;2023-01-29T11:43:11;25.00;;;16.77;;
43519;SDS011;46848;51.980;5.918;2023-01-29T11:45:45;24.23;;;15.20;;
43519;SDS011;46848;51.980;5.918;2023-01-29T11:48:13;23.13;;;15.40;;
43519;SDS011;46848;51.980;5.918;2023-01-29T11:50:49;23.13;;;14.75;;
43519;SDS011;46848;51.980;5.918;2023-01-29T11:53:30;18.07;;;13.13;;
43519;SDS011;46848;51.980;5.918;2023-01-29T11:56:03;20.77;;;13.83;;
43519;SDS011;46848;51.980;5.918;2023-01-29T11:58:39;23.13;;;14.63;;
43519;SDS011;46848;51.980;5.918;2023-01-29T12:01:06;20.47;;;14.13;;
43519;SDS011;46848;51.980;5.918;2023-01-29T12:03:50;20.60;;;14.30;;
43519;SDS011;46848;51.980;5.918;2023-01-29T12:06:22;22.53;;;14.37;;
43519;SDS011;46848;51.980;5.918;2023-01-29T12:08:55;21.70;;;14.70;;
43519;SDS011;46848;51.980;5.918;2023-01-29T12:11:29;27.30;;;15.33;;
43519;SDS011;46848;51.980;5.918;2023-01-29T12:13:59;23.57;;;14.97;;
43519;SDS011;46848;51.980;5.918;2023-01-29T12:17:12;29.60;;;17.63;;
43519;SDS011;46848;51.980;5.918;2023-01-29T12:19:26;22.73;;;14.90;;
43519;SDS011;46848;51.980;5.918;2023-01-29T12:22:16;20.70;;;14.67;;
43519;SDS011;46848;51.980;5.918;2023-01-29T12:30:39;21.30;;;15.27;;
43519;SDS011;46848;51.980;5.918;2023-01-29T12:38:45;24.07;;;16.23;;
43519;SDS011;46848;51.980;5.918;2023-01-29T12:43:56;23.00;;;16.13;;
43519;SDS011;46848;51.980;5.918;2023-01-29T12:46:30;23.10;;;15.87;;
43519;SDS011;46848;51.980;5.918;2023-01-29T12:49:02;24.90;;;16.90;;
43519;SDS011;46848;51.980;5.918;2023-01-29T12:51:45;22.80;;;15.82;;
43519;SDS011;46848;51.980;5.918;2023-01-29T12:54:19;23.43;;;16.77;;
43519;SDS011;46848;51.980;5.918;2023-01-29T12:56:51;26.07;;;17.37;;
43519;SDS011;46848;51.980;5.918;2023-01-29T13:02:22;25.03;;;17.07;;
43519;SDS011;46848;51.980;5.918;2023-01-29T13:05:18;22.73;;;16.38;;
43519;SDS011;46848;51.980;5.918;2023-01-29T13:08:09;27.00;;;18.40;;
43519;SDS011;46848;51.980;5.918;2023-01-29T13:10:43;29.33;;;19.80;;
43519;SDS011;46848;51.980;5.918;2023-01-29T13:13:20;26.43;;;18.33;;
43519;SDS011;46848;51.980;5.918;2023-01-29T13:15:57;29.95;;;19.08;;
43519;SDS011;46848;51.980;5.918;2023-01-29T13:18:31;24.43;;;17.40;;
43519;SDS011;46848;51.980;5.918;2023-01-29T13:20:58;26.23;;;18.17;;
43519;SDS011;46848;51.980;5.918;2023-01-29T13:23:28;28.47;;;19.73;;
43519;SDS011;46848;51.980;5.918;2023-01-29T13:26:01;29.50;;;20.70;;
43519;SDS011;46848;51.980;5.918;2023-01-29T13:28:28;30.17;;;20.33;;
43519;SDS011;46848;51.980;5.918;2023-01-29T13:33:41;29.77;;;19.80;;
43519;SDS011;46848;51.980;5.918;2023-01-29T13:36:17;26.57;;;18.50;;
43519;SDS011;46848;51.980;5.918;2023-01-29T13:38:53;25.87;;;19.30;;
43519;SDS011;46848;51.980;5.918;2023-01-29T13:41:33;31.37;;;20.63;;
43519;SDS011;46848;51.980;5.918;2023-01-29T13:44:07;32.63;;;20.50;;
43519;SDS011;46848;51.980;5.918;2023-01-29T13:46:52;34.13;;;21.10;;
43519;SDS011;46848;51.980;5.918;2023-01-29T13:55:03;33.97;;;22.60;;
43519;SDS011;46848;51.980;5.918;2023-01-29T13:57:36;31.43;;;21.73;;
43519;SDS011;46848;51.980;5.918;2023-01-29T14:05:39;35.27;;;22.37;;
43519;SDS011;46848;51.980;5.918;2023-01-29T14:10:38;32.50;;;22.25;;
43519;SDS011;46848;51.980;5.918;2023-01-29T14:15:42;33.73;;;22.80;;
43519;SDS011;46848;51.980;5.918;2023-01-29T14:18:20;32.23;;;21.87;;
43519;SDS011;46848;51.980;5.918;2023-01-29T14:21:04;31.97;;;21.23;;
43519;SDS011;46848;51.980;5.918;2023-01-29T14:23:39;36.27;;;24.43;;
43519;SDS011;46848;51.980;5.918;2023-01-29T14:26:44;34.10;;;22.60;;
43519;SDS011;46848;51.980;5.918;2023-01-29T14:34:03;34.00;;;21.97;;
43519;SDS011;46848;51.980;5.918;2023-01-29T14:37:01;29.87;;;21.10;;
43519;SDS011;46848;51.980;5.918;2023-01-29T14:39:43;32.50;;;22.27;;
43519;SDS011;46848;51.980;5.918;2023-01-29T14:50:46;32.93;;;21.53;;
43519;SDS011;46848;51.980;5.918;2023-01-29T14:53:18;32.17;;;20.93;;
43519;SDS011;46848;51.980;5.918;2023-01-29T14:55:55;35.57;;;22.50;;
43519;SDS011;46848;51.980;5.918;2023-01-29T15:01:04;34.07;;;21.67;;
43519;SDS011;46848;51.980;5.918;2023-01-29T15:03:42;32.43;;;21.70;;
43519;SDS011;46848;51.980;5.918;2023-01-29T15:07:11;35.77;;;22.00;;
43519;SDS011;46848;51.980;5.918;2023-01-29T15:17:35;33.27;;;22.43;;
43519;SDS011;46848;51.980;5.918;2023-01-29T15:23:01;33.07;;;21.80;;
43519;SDS011;46848;51.980;5.918;2023-01-29T15:25:45;33.57;;;22.20;;
43519;SDS011;46848;51.980;5.918;2023-01-29T15:28:13;33.47;;;22.33;;
43519;SDS011;46848;51.980;5.918;2023-01-29T15:30:39;33.90;;;22.40;;
43519;SDS011;46848;51.980;5.918;2023-01-29T15:33:07;29.83;;;19.50;;
43519;SDS011;46848;51.980;5.918;2023-01-29T15:38:03;36.23;;;22.40;;
43519;SDS011;46848;51.980;5.918;2023-01-29T15:40:40;38.10;;;23.77;;
43519;SDS011;46848;51.980;5.918;2023-01-29T15:43:34;37.13;;;21.87;;
43519;SDS011;46848;51.980;5.918;2023-01-29T15:46:05;35.33;;;23.67;;
43519;SDS011;46848;51.980;5.918;2023-01-29T15:48:39;32.33;;;22.10;;
43519;SDS011;46848;51.980;5.918;2023-01-29T15:51:07;39.58;;;23.88;;
43519;SDS011;46848;51.980;5.918;2023-01-29T15:53:57;35.97;;;24.15;;
43519;SDS011;46848;51.980;5.918;2023-01-29T15:59:16;37.17;;;23.63;;
43519;SDS011;46848;51.980;5.918;2023-01-29T16:01:43;36.87;;;23.57;;
43519;SDS011;46848;51.980;5.918;2023-01-29T16:04:10;38.17;;;24.00;;
43519;SDS011;46848;51.980;5.918;2023-01-29T16:06:40;39.25;;;23.55;;
43519;SDS011;46848;51.980;5.918;2023-01-29T16:09:09;40.23;;;23.20;;
43519;SDS011;46848;51.980;5.918;2023-01-29T16:11:42;33.57;;;22.40;;
43519;SDS011;46848;51.980;5.918;2023-01-29T16:14:10;32.97;;;22.87;;
43519;SDS011;46848;51.980;5.918;2023-01-29T16:16:38;35.97;;;22.53;;
43519;SDS011;46848;51.980;5.918;2023-01-29T16:19:12;32.40;;;21.43;;
43519;SDS011;46848;51.980;5.918;2023-01-29T16:21:45;38.60;;;23.55;;
43519;SDS011;46848;51.980;5.918;2023-01-29T16:24:19;30.47;;;20.50;;
43519;SDS011;46848;51.980;5.918;2023-01-29T16:26:48;36.73;;;22.83;;
43519;SDS011;46848;51.980;5.918;2023-01-29T16:29:17;33.97;;;22.67;;
43519;SDS011;46848;51.980;5.918;2023-01-29T16:31:46;33.70;;;21.83;;
43519;SDS011;46848;51.980;5.918;2023-01-29T16:34:17;34.50;;;22.53;;
43519;SDS011;46848;51.980;5.918;2023-01-29T16:36:50;36.57;;;22.73;;
43519;SDS011;46848;51.980;5.918;2023-01-29T16:39:20;40.07;;;24.07;;
43519;SDS011;46848;51.980;5.918;2023-01-29T16:42:30;37.58;;;24.08;;
43519;SDS011;46848;51.980;5.918;2023-01-29T16:52:31;35.73;;;22.40;;
43519;SDS011;46848;51.980;5.918;2023-01-29T16:55:13;37.17;;;23.20;;
43519;SDS011;46848;51.980;5.918;2023-01-29T16:57:46;36.90;;;23.60;;
43519;SDS011;46848;51.980;5.918;2023-01-29T17:00:17;34.33;;;21.95;;
43519;SDS011;46848;51.980;5.918;2023-01-29T17:02:49;37.70;;;22.13;;
43519;SDS011;46848;51.980;5.918;2023-01-29T17:05:20;36.07;;;22.60;;
43519;SDS011;46848;51.980;5.918;2023-01-29T17:07:49;37.90;;;23.27;;
43519;SDS011;46848;51.980;5.918;2023-01-29T17:10:17;36.60;;;22.70;;
43519;SDS011;46848;51.980;5.918;2023-01-29T17:12:55;36.93;;;22.63;;
43519;SDS011;46848;51.980;5.918;2023-01-29T17:18:23;36.10;;;22.83;;
43519;SDS011;46848;51.980;5.918;2023-01-29T17:20:49;35.88;;;23.02;;
43519;SDS011;46848;51.980;5.918;2023-01-29T17:23:16;35.70;;;22.20;;
43519;SDS011;46848;51.980;5.918;2023-01-29T17:25:42;33.23;;;21.23;;
43519;SDS011;46848;51.980;5.918;2023-01-29T17:28:10;30.97;;;20.47;;
43519;SDS011;46848;51.980;5.918;2023-01-29T17:30:37;37.30;;;22.90;;
43519;SDS011;46848;51.980;5.918;2023-01-29T17:33:13;34.77;;;22.27;;
43519;SDS011;46848;51.980;5.918;2023-01-29T17:35:42;35.10;;;21.93;;
43519;SDS011;46848;51.980;5.918;2023-01-29T17:38:12;33.90;;;23.23;;
43519;SDS011;46848;51.980;5.918;2023-01-29T17:40:40;37.53;;;22.33;;